Time;durP1;ratioP1;P1;durP2;ratioP2;P2;SDS_P1;SDS_P2;PMS_P1;PMS_P2;Temp;Humidity;BMP_temperature;BMP_pressure;BME280_temperature;BME280_humidity;BME280_pressure;Samples;Min_cycle;Max_cycle;Signal;HPM_P1;HPM_P2
2023/11/21 00:03:23;;;;;;;17.23;12.60;;;10.50;99.00;;;;;;10368686;28;20255;-61
2023/11/21 00:08:29;;;;;;;18.27;13.60;;;10.40;98.90;;;;;;10369449;28;20282;-61
2023/11/21 00:13:33;;;;;;;19.70;13.70;;;10.40;98.80;;;;;;10355772;28;20640;-60
2023/11/21 00:18:37;;;;;;;20.57;13.40;;;10.40;98.90;;;;;;10372632;28;20231;-60
2023/11/21 00:23:42;;;;;;;16.73;12.87;;;10.30;98.90;;;;;;10350970;28;20237;-61
2023/11/21 00:28:46;;;;;;;16.87;13.07;;;10.40;98.90;;;;;;10371779;28;20584;-61
2023/11/21 00:33:50;;;;;;;15.73;12.20;;;10.30;98.80;;;;;;10370341;28;20662;-61
2023/11/21 00:38:55;;;;;;;15.43;12.30;;;10.40;99.00;;;;;;10370216;28;20193;-61
2023/11/21 00:43:59;;;;;;;17.47;12.70;;;10.40;98.90;;;;;;10371027;28;20205;-61
2023/11/21 00:49:04;;;;;;;17.53;12.33;;;10.40;98.90;;;;;;10342427;28;20640;-62
2023/11/21 00:54:09;;;;;;;18.70;12.07;;;10.40;99.00;;;;;;10373400;28;20201;-61
2023/11/21 00:59:12;;;;;;;14.87;11.40;;;10.40;99.10;;;;;;10371488;28;20197;-59
2023/11/21 01:04:16;;;;;;;19.48;11.32;;;10.40;99.00;;;;;;10369672;28;20595;-61
2023/11/21 01:09:21;;;;;;;14.82;11.25;;;10.50;99.10;;;;;;10371660;28;20279;-61
2023/11/21 01:14:26;;;;;;;18.70;11.77;;;10.40;99.00;;;;;;10372366;28;20197;-60
2023/11/21 01:19:30;;;;;;;18.33;11.38;;;10.40;99.00;;;;;;10377826;28;20641;-61
2023/11/21 01:24:35;;;;;;;14.10;11.20;;;10.50;99.10;;;;;;10379158;28;20205;-61
2023/11/21 01:29:42;;;;;;;17.17;11.27;;;10.50;99.40;;;;;;10379013;28;20221;-59
2023/11/21 01:34:46;;;;;;;16.67;10.87;;;10.40;99.00;;;;;;10353196;28;20615;-61
2023/11/21 01:39:51;;;;;;;16.87;11.13;;;10.50;99.20;;;;;;10375426;28;20728;-61
2023/11/21 01:44:55;;;;;;;16.40;10.80;;;10.50;99.20;;;;;;10378372;28;20247;-61
2023/11/21 01:50:05;;;;;;;17.13;10.17;;;10.40;99.10;;;;;;10377208;28;20282;-61
2023/11/21 02:00:20;;;;;;;15.40;9.87;;;10.40;99.20;;;;;;10374233;28;20279;-58
2023/11/21 02:05:25;;;;;;;14.50;10.53;;;10.50;99.30;;;;;;10375135;28;20547;-58
2023/11/21 02:10:29;;;;;;;16.03;11.00;;;10.40;99.30;;;;;;10359141;28;20225;-61
2023/11/21 02:15:34;;;;;;;14.23;10.63;;;10.50;99.30;;;;;;10375146;28;20255;-60
2023/11/21 02:20:38;;;;;;;15.80;10.40;;;10.40;99.30;;;;;;10372525;28;20224;-62
2023/11/21 02:25:43;;;;;;;16.80;10.73;;;10.40;99.40;;;;;;10380091;28;20200;-59
2023/11/21 02:30:55;;;;;;;17.60;10.87;;;10.40;99.30;;;;;;10377309;28;20216;-59
2023/11/21 02:35:58;;;;;;;17.00;10.57;;;10.50;99.40;;;;;;10377665;28;20224;-61
2023/11/21 02:41:04;;;;;;;18.83;10.70;;;10.40;99.30;;;;;;10373658;28;20228;-61
2023/11/21 02:46:09;;;;;;;16.47;11.03;;;10.40;99.40;;;;;;10350775;28;20217;-61
2023/11/21 02:51:13;;;;;;;15.00;10.00;;;10.40;99.30;;;;;;10372672;28;20220;-61
2023/11/21 02:56:17;;;;;;;14.73;10.50;;;10.40;99.30;;;;;;10374886;28;20209;-59
2023/11/21 03:01:21;;;;;;;17.27;10.00;;;10.40;99.30;;;;;;10364704;28;20221;-60
2023/11/21 03:06:25;;;;;;;19.90;10.77;;;10.40;99.40;;;;;;10369348;28;20220;-60
2023/11/21 03:11:29;;;;;;;17.63;10.35;;;10.40;99.40;;;;;;10339974;28;20615;-59
2023/11/21 03:16:33;;;;;;;19.00;11.70;;;10.40;99.40;;;;;;10377300;28;20595;-58
2023/11/21 03:21:37;;;;;;;16.73;11.37;;;10.40;99.40;;;;;;10371580;28;20216;-60
2023/11/21 03:26:42;;;;;;;16.97;10.93;;;10.40;99.40;;;;;;10371464;28;20267;-60
2023/11/21 03:31:46;;;;;;;16.37;11.10;;;10.40;99.40;;;;;;10371395;28;20283;-60
2023/11/21 03:36:49;;;;;;;15.07;10.47;;;10.40;99.50;;;;;;10370819;28;20197;-60
2023/11/21 03:41:54;;;;;;;13.27;10.00;;;10.40;99.50;;;;;;10371411;28;20247;-59
2023/11/21 03:46:57;;;;;;;18.63;12.20;;;10.40;99.50;;;;;;10371291;28;20592;-60
2023/11/21 03:52:02;;;;;;;17.97;11.13;;;10.40;99.60;;;;;;10356463;28;20225;-60
2023/11/21 03:57:07;;;;;;;15.30;10.77;;;10.40;99.60;;;;;;10370827;28;20213;-59
2023/11/21 04:02:11;;;;;;;15.73;11.10;;;10.40;99.70;;;;;;10349343;28;20221;-60
2023/11/21 04:07:17;;;;;;;14.57;11.07;;;10.40;99.70;;;;;;10371139;28;20267;-58
2023/11/21 04:12:30;;;;;;;12.60;10.07;;;10.40;99.70;;;;;;10353151;28;20244;-60
2023/11/21 04:17:34;;;;;;;14.65;10.32;;;10.40;99.70;;;;;;10350877;28;20197;-60
2023/11/21 04:22:40;;;;;;;17.07;11.20;;;10.40;99.60;;;;;;10370126;28;20275;-60
2023/11/21 04:27:46;;;;;;;16.63;10.60;;;10.30;99.70;;;;;;10371397;28;20216;-60
2023/11/21 04:32:50;;;;;;;16.70;10.73;;;10.40;99.60;;;;;;10350470;28;20224;-59
2023/11/21 04:37:54;;;;;;;17.30;10.60;;;10.40;99.70;;;;;;10363350;28;20575;-58
2023/11/21 04:42:59;;;;;;;14.38;9.93;;;10.30;99.50;;;;;;10347836;28;20714;-59
2023/11/21 04:48:03;;;;;;;16.85;11.27;;;10.30;99.50;;;;;;10366903;28;20247;-59
2023/11/21 04:53:06;;;;;;;14.95;10.20;;;10.30;99.50;;;;;;10372320;28;20228;-58
2023/11/21 04:58:12;;;;;;;18.25;11.93;;;10.20;99.50;;;;;;10369259;28;20232;-58
2023/11/21 05:03:15;;;;;;;19.10;11.90;;;10.20;99.30;;;;;;10370086;28;20282;-58
2023/11/21 05:08:20;;;;;;;16.70;11.83;;;10.20;99.30;;;;;;10368146;28;20217;-60
2023/11/21 05:13:27;;;;;;;15.00;10.97;;;10.10;99.30;;;;;;10370850;28;20282;-60
2023/11/21 05:18:31;;;;;;;19.87;11.23;;;10.10;99.20;;;;;;10367485;28;20252;-60
2023/11/21 05:23:35;;;;;;;15.90;12.13;;;10.10;99.20;;;;;;10367150;28;20677;-61
2023/11/21 05:28:40;;;;;;;16.50;12.97;;;10.00;99.30;;;;;;10375955;28;20704;-60
2023/11/21 05:33:43;;;;;;;18.10;12.70;;;10.00;99.30;;;;;;10367319;28;20228;-62
2023/11/21 05:38:47;;;;;;;16.17;12.87;;;10.10;99.30;;;;;;10373574;28;20263;-60
2023/11/21 05:43:53;;;;;;;17.07;12.10;;;10.10;99.50;;;;;;10372130;28;20221;-56
2023/11/21 05:48:57;;;;;;;17.17;11.53;;;10.10;99.40;;;;;;10368439;28;20239;-58
2023/11/21 05:54:00;;;;;;;17.27;14.60;;;10.10;99.40;;;;;;10366309;28;20455;-60
2023/11/21 05:59:06;;;;;;;17.00;11.75;;;10.10;99.30;;;;;;10368546;28;20248;-61
2023/11/21 06:04:10;;;;;;;17.57;12.77;;;10.10;99.10;;;;;;10375356;28;20259;-60
2023/11/21 06:09:14;;;;;;;14.27;11.87;;;10.10;99.10;;;;;;10379540;28;20232;-61
2023/11/21 06:14:19;;;;;;;16.92;12.27;;;10.00;99.00;;;;;;10376616;28;20202;-61
2023/11/21 06:19:30;;;;;;;20.67;12.77;;;10.00;99.10;;;;;;10378560;28;20283;-60
2023/11/21 06:24:33;;;;;;;17.83;12.50;;;10.00;99.30;;;;;;10375458;28;20251;-61
2023/11/21 06:29:38;;;;;;;17.27;12.17;;;10.00;99.30;;;;;;10373869;28;20795;-61
2023/11/21 06:34:42;;;;;;;15.10;11.75;;;10.00;99.30;;;;;;10363691;28;20214;-62
2023/11/21 06:39:45;;;;;;;17.27;12.38;;;10.00;99.20;;;;;;10379999;28;20216;-62
2023/11/21 06:44:51;;;;;;;19.07;13.50;;;10.00;99.20;;;;;;10387453;28;20213;-61
2023/11/21 06:49:55;;;;;;;19.87;13.00;;;10.00;99.40;;;;;;10366076;28;20247;-61
2023/11/21 06:54:58;;;;;;;21.73;17.05;;;10.00;99.40;;;;;;10378682;28;20508;-63
2023/11/21 07:00:04;;;;;;;18.13;13.60;;;10.10;99.60;;;;;;10374187;28;20229;-63
2023/11/21 07:05:08;;;;;;;16.47;11.80;;;10.10;99.40;;;;;;10377883;28;20197;-63
2023/11/21 07:10:12;;;;;;;15.20;11.87;;;10.10;99.30;;;;;;10337544;28;20287;-63
2023/11/21 07:15:19;;;;;;;19.97;13.00;;;10.10;99.30;;;;;;10374394;28;20197;-63
2023/11/21 07:20:23;;;;;;;19.90;13.27;;;10.20;99.50;;;;;;10373864;28;20243;-62
2023/11/21 07:25:27;;;;;;;18.90;12.53;;;10.20;99.90;;;;;;10372530;28;20251;-62
2023/11/21 07:30:32;;;;;;;22.63;14.15;;;10.20;99.60;;;;;;10372287;28;20233;-62
2023/11/21 07:35:35;;;;;;;22.83;13.80;;;10.20;99.60;;;;;;10372014;28;20200;-62
2023/11/21 07:40:39;;;;;;;24.63;13.48;;;10.20;99.60;;;;;;10366591;28;20224;-62
2023/11/21 07:45:44;;;;;;;21.97;14.13;;;10.20;99.80;;;;;;10375721;28;20200;-63
2023/11/21 07:50:49;;;;;;;21.40;14.68;;;10.30;99.80;;;;;;10372581;28;20299;-64
2023/11/21 07:55:53;;;;;;;22.00;15.33;;;10.30;99.80;;;;;;10365529;28;20259;-63
2023/11/21 08:00:58;;;;;;;24.97;14.50;;;10.30;99.80;;;;;;10370884;28;20559;-64
2023/11/21 08:06:03;;;;;;;19.17;14.20;;;10.40;99.90;;;;;;10372057;28;20718;-62
2023/11/21 08:11:12;;;;;;;26.57;16.33;;;10.40;99.80;;;;;;10363945;28;20228;-64
2023/11/21 08:16:17;;;;;;;46.93;23.87;;;10.50;99.80;;;;;;10356904;28;20205;-64
2023/11/21 08:21:21;;;;;;;45.37;25.67;;;10.50;99.80;;;;;;10368410;28;20684;-63
2023/11/21 08:26:24;;;;;;;53.67;27.97;;;10.50;99.80;;;;;;10365755;28;20581;-63
2023/11/21 08:31:29;;;;;;;51.80;27.05;;;10.50;99.80;;;;;;10367545;28;20243;-63
2023/11/21 08:36:33;;;;;;;51.27;26.30;;;10.50;99.90;;;;;;10368637;28;20345;-63
2023/11/21 08:41:36;;;;;;;47.57;26.73;;;10.40;99.90;;;;;;10374132;28;20217;-63
2023/11/21 08:46:43;;;;;;;53.58;28.90;;;10.40;99.90;;;;;;10341118;28;20204;-64
2023/11/21 08:51:47;;;;;;;55.23;30.10;;;10.50;99.90;;;;;;10369892;28;20256;-64
2023/11/21 08:56:50;;;;;;;66.30;31.53;;;10.50;99.90;;;;;;10369549;28;20213;-63
2023/11/21 09:01:56;;;;;;;66.93;33.43;;;10.60;99.90;;;;;;10362648;28;20212;-62
2023/11/21 09:06:59;;;;;;;63.00;32.13;;;10.60;99.90;;;;;;10334448;28;20727;-65
2023/11/21 09:12:04;;;;;;;63.50;34.43;;;10.70;99.90;;;;;;10362830;28;20252;-64
2023/11/21 09:17:11;;;;;;;68.57;36.13;;;10.80;99.90;;;;;;10302229;28;20959;-66
2023/11/21 09:22:17;;;;;;;73.07;36.97;;;10.80;99.90;;;;;;10363211;28;20239;-65
2023/11/21 09:27:22;;;;;;;78.45;38.95;;;10.90;99.90;;;;;;10364239;28;20769;-65
2023/11/21 09:32:27;;;;;;;87.00;41.47;;;10.90;99.90;;;;;;10327082;28;20267;-65
2023/11/21 09:37:31;;;;;;;86.32;42.47;;;10.90;99.90;;;;;;10369500;28;20209;-65
2023/11/21 09:42:41;;;;;;;92.27;42.83;;;11.00;99.90;;;;;;10371053;28;20278;-65
2023/11/21 09:47:47;;;;;;;82.78;40.95;;;11.00;99.90;;;;;;10373858;28;20667;-64
2023/11/21 09:53:14;;;;;;;73.13;38.78;;;11.00;99.90;;;;;;10368562;28;20727;-64
2023/11/21 09:58:19;;;;;;;63.40;35.35;;;11.10;99.90;;;;;;10370714;28;20208;-64
2023/11/21 10:03:24;;;;;;;71.17;36.70;;;11.10;99.90;;;;;;10376051;28;20221;-64
2023/11/21 10:08:31;;;;;;;69.07;36.87;;;11.10;99.90;;;;;;10372185;28;20209;-64
2023/11/21 10:13:57;;;;;;;68.68;37.67;;;11.20;99.90;;;;;;10365775;28;20221;-64
2023/11/21 10:19:02;;;;;;;74.10;38.17;;;11.20;99.90;;;;;;10369744;28;20208;-64
2023/11/21 10:24:15;;;;;;;72.70;38.78;;;11.30;99.90;;;;;;10369657;28;20766;-64
2023/11/21 10:29:19;;;;;;;67.03;37.00;;;11.40;99.90;;;;;;10371282;28;20256;-64
2023/11/21 10:34:24;;;;;;;77.18;39.15;;;11.40;99.90;;;;;;10372285;28;20205;-64
2023/11/21 10:39:30;;;;;;;71.22;38.83;;;11.40;99.90;;;;;;10369626;28;20343;-65
2023/11/21 10:44:35;;;;;;;65.57;37.17;;;11.50;99.90;;;;;;10369716;28;20205;-65
2023/11/21 10:49:40;;;;;;;69.95;37.55;;;11.60;99.90;;;;;;10365396;28;20649;-65
2023/11/21 10:54:44;;;;;;;70.07;34.78;;;11.60;99.90;;;;;;10369146;28;20769;-65
2023/11/21 10:59:49;;;;;;;55.88;32.20;;;11.70;99.90;;;;;;10369755;28;20664;-64
2023/11/21 11:04:55;;;;;;;58.25;32.35;;;11.70;99.90;;;;;;10372004;28;20730;-64
2023/11/21 11:10:00;;;;;;;61.53;32.35;;;11.70;99.90;;;;;;10364093;28;20621;-64
2023/11/21 11:15:05;;;;;;;48.85;28.35;;;11.80;99.90;;;;;;10367796;28;20618;-65
2023/11/21 11:20:16;;;;;;;51.17;28.10;;;11.90;99.90;;;;;;10368189;28;20591;-65
2023/11/21 11:25:36;;;;;;;49.67;31.38;;;11.90;99.70;;;;;;10366882;28;20205;-65
2023/11/21 11:30:55;;;;;;;46.80;30.20;;;11.90;99.70;;;;;;10365629;28;20282;-65
2023/11/21 11:36:07;;;;;;;56.85;32.90;;;11.90;99.70;;;;;;10362576;28;20205;-65
2023/11/21 11:41:11;;;;;;;56.33;35.22;;;11.90;99.80;;;;;;10367248;28;20274;-65
2023/11/21 11:46:15;;;;;;;57.22;34.30;;;11.90;99.90;;;;;;10366653;28;20228;-65
2023/11/21 11:51:21;;;;;;;36.95;25.85;;;11.80;99.80;;;;;;10364485;28;20290;-65
2023/11/21 11:56:27;;;;;;;34.42;23.02;;;11.80;99.90;;;;;;10364872;28;20216;-65
2023/11/21 12:01:34;;;;;;;37.88;24.85;;;11.70;99.90;;;;;;10366496;28;20270;-65
2023/11/21 12:06:39;;;;;;;34.50;23.63;;;11.70;99.90;;;;;;10366264;28;20675;-65
2023/11/21 12:11:43;;;;;;;35.03;23.35;;;11.70;99.90;;;;;;10367431;28;20225;-65
2023/11/21 12:16:48;;;;;;;35.70;24.00;;;11.60;99.90;;;;;;10371148;28;20209;-67
2023/11/21 12:21:53;;;;;;;39.88;25.40;;;11.70;99.90;;;;;;10368212;28;20217;-65
2023/11/21 12:26:56;;;;;;;38.42;25.45;;;11.60;99.90;;;;;;10378246;28;20201;-65
2023/11/21 12:32:00;;;;;;;32.40;22.30;;;11.60;99.90;;;;;;10370605;28;20220;-64
2023/11/21 12:37:06;;;;;;;32.55;22.13;;;11.60;99.90;;;;;;10366083;28;20208;-65
2023/11/21 12:42:10;;;;;;;32.88;21.58;;;11.60;99.90;;;;;;10366849;28;20267;-65
2023/11/21 12:47:18;;;;;;;24.45;17.17;;;11.60;99.90;;;;;;10365041;28;20197;-64
2023/11/21 12:52:24;;;;;;;20.10;15.95;;;11.60;99.90;;;;;;10365867;28;20220;-64
2023/11/21 12:57:28;;;;;;;15.00;11.93;;;11.60;99.90;;;;;;10360341;28;20209;-65
2023/11/21 13:02:35;;;;;;;15.88;11.20;;;11.60;99.90;;;;;;10361361;28;20249;-65
2023/11/21 13:07:46;;;;;;;13.80;11.48;;;11.60;99.90;;;;;;10367389;28;20359;-64
2023/11/21 13:12:53;;;;;;;14.10;11.20;;;11.60;99.90;;;;;;10372519;28;20224;-64
2023/11/21 13:17:57;;;;;;;15.65;12.05;;;11.60;99.90;;;;;;10369601;28;20664;-64
2023/11/21 13:23:08;;;;;;;15.77;12.95;;;11.60;99.90;;;;;;10371874;28;20228;-64
2023/11/21 13:28:12;;;;;;;16.65;13.63;;;11.50;99.90;;;;;;10373507;28;20268;-64
2023/11/21 13:33:17;;;;;;;16.95;13.68;;;11.50;99.90;;;;;;10377643;28;20221;-63
2023/11/21 13:38:24;;;;;;;19.30;15.05;;;11.50;99.90;;;;;;10377006;28;20632;-63
2023/11/21 13:43:28;;;;;;;18.00;13.57;;;11.50;99.90;;;;;;10371346;28;20216;-64
2023/11/21 13:48:40;;;;;;;18.50;13.97;;;11.50;99.90;;;;;;10378793;28;20723;-65
2023/11/21 13:53:47;;;;;;;16.52;12.55;;;11.50;99.90;;;;;;10354470;28;20251;-64
2023/11/21 13:58:51;;;;;;;17.38;12.93;;;11.40;99.90;;;;;;10376657;28;20212;-64
2023/11/21 14:04:02;;;;;;;16.55;12.40;;;11.40;99.90;;;;;;10379057;28;20217;-66
2023/11/21 14:09:07;;;;;;;18.02;12.90;;;11.40;99.90;;;;;;10387356;28;20231;-63
2023/11/21 14:14:11;;;;;;;16.55;12.73;;;11.40;99.90;;;;;;10379090;28;20278;-65
2023/11/21 14:19:16;;;;;;;15.65;12.57;;;11.40;99.90;;;;;;10376412;28;20205;-64
2023/11/21 14:24:24;;;;;;;13.43;10.30;;;11.30;99.90;;;;;;10375761;28;20266;-65
2023/11/21 14:29:29;;;;;;;14.82;10.68;;;11.20;99.90;;;;;;10377353;28;20221;-64
2023/11/21 14:34:33;;;;;;;11.50;9.20;;;11.20;99.90;;;;;;10373672;28;20213;-62
2023/11/21 14:39:43;;;;;;;10.68;8.93;;;11.20;99.90;;;;;;10363083;28;20229;-66
2023/11/21 14:44:47;;;;;;;12.00;8.50;;;11.20;99.90;;;;;;10365276;28;20201;-63
2023/11/21 14:49:53;;;;;;;11.33;7.73;;;11.20;99.90;;;;;;10374780;28;20217;-64
2023/11/21 14:55:20;;;;;;;8.18;6.90;;;11.20;99.90;;;;;;10341603;28;20224;-65
2023/11/21 15:00:44;;;;;;;8.55;6.57;;;11.20;99.90;;;;;;10364823;28;20216;-66
2023/11/21 15:05:50;;;;;;;6.73;5.87;;;11.10;99.50;;;;;;10366858;28;20566;-65
2023/11/21 15:10:55;;;;;;;6.28;5.68;;;11.10;99.60;;;;;;10377039;28;20247;-67
2023/11/21 15:16:07;;;;;;;5.60;5.10;;;11.10;99.20;;;;;;10368891;28;20196;-64
2023/11/21 15:21:11;;;;;;;6.10;5.50;;;11.00;99.30;;;;;;10368341;28;20567;-64
2023/11/21 15:26:16;;;;;;;6.88;6.13;;;11.00;98.80;;;;;;10373394;28;20205;-65
2023/11/21 15:31:24;;;;;;;7.43;6.47;;;10.90;98.70;;;;;;10367256;28;20303;-65
2023/11/21 15:36:28;;;;;;;8.52;7.55;;;10.80;98.60;;;;;;10365825;28;20254;-63
2023/11/21 15:41:33;;;;;;;10.00;8.97;;;10.80;98.80;;;;;;10374225;28;20272;-63
2023/11/21 15:46:39;;;;;;;11.80;10.60;;;10.70;98.80;;;;;;10367558;28;20205;-64
2023/11/21 15:51:46;;;;;;;13.27;11.88;;;10.70;98.80;;;;;;10368001;28;20279;-63
2023/11/21 15:56:52;;;;;;;13.97;12.47;;;10.70;98.90;;;;;;10367832;28;20221;-64
2023/11/21 16:01:57;;;;;;;16.25;12.98;;;10.60;98.70;;;;;;10370734;28;20221;-61
2023/11/21 16:07:01;;;;;;;15.83;14.10;;;10.60;99.00;;;;;;10371963;28;20387;-62
2023/11/21 16:12:08;;;;;;;14.47;11.70;;;10.50;99.00;;;;;;10371502;28;20224;-63
2023/11/21 16:17:13;;;;;;;12.77;11.40;;;10.40;98.40;;;;;;10382719;28;20197;-63
2023/11/21 16:22:17;;;;;;;13.53;10.07;;;10.40;98.60;;;;;;10371746;28;20225;-61
2023/11/21 16:27:22;;;;;;;10.33;9.33;;;10.30;98.30;;;;;;10345649;28;20205;-62
2023/11/21 16:32:25;;;;;;;9.65;8.75;;;10.30;98.00;;;;;;10369317;28;20232;-63
2023/11/21 16:37:29;;;;;;;10.93;9.83;;;10.20;97.80;;;;;;10369749;28;20205;-62
2023/11/21 16:42:34;;;;;;;10.33;9.23;;;10.10;97.70;;;;;;10367883;28;20217;-63
2023/11/21 16:47:39;;;;;;;10.37;9.23;;;10.10;97.10;;;;;;10369950;28;20209;-63
2023/11/21 16:52:43;;;;;;;9.80;8.80;;;10.00;97.30;;;;;;10369811;28;20665;-62
2023/11/21 16:57:50;;;;;;;11.80;9.30;;;10.00;97.60;;;;;;10370063;28;20208;-62
2023/11/21 17:02:54;;;;;;;10.73;9.63;;;9.90;97.50;;;;;;10369019;28;20291;-62
2023/11/21 17:07:59;;;;;;;9.40;8.50;;;9.90;97.70;;;;;;10369091;28;20680;-63
2023/11/21 17:13:05;;;;;;;10.23;9.10;;;9.90;97.40;;;;;;10345785;28;20302;-66
2023/11/21 17:18:08;;;;;;;10.20;9.20;;;9.90;97.60;;;;;;10361522;28;20232;-66
2023/11/21 17:23:12;;;;;;;9.67;8.67;;;9.70;97.00;;;;;;10364877;28;20221;-66
2023/11/21 17:28:18;;;;;;;10.33;8.57;;;9.60;97.10;;;;;;10357563;28;21630;-67
2023/11/21 17:33:21;;;;;;;8.93;7.77;;;9.60;97.10;;;;;;10363364;28;20252;-66
2023/11/21 17:38:25;;;;;;;8.30;7.50;;;9.60;97.10;;;;;;10363025;28;20197;-66
2023/11/21 17:43:39;;;;;;;8.10;7.30;;;9.60;96.70;;;;;;10365384;28;20275;-67
2023/11/21 17:48:43;;;;;;;7.80;7.03;;;9.60;96.50;;;;;;10364977;28;20205;-68
2023/11/21 17:53:48;;;;;;;8.30;7.33;;;9.60;96.70;;;;;;10367295;28;20224;-67
2023/11/21 17:58:54;;;;;;;7.87;7.07;;;9.60;96.30;;;;;;10371458;28;20232;-66
2023/11/21 18:03:58;;;;;;;9.20;7.00;;;9.60;96.10;;;;;;10371681;28;20762;-68
2023/11/21 18:09:03;;;;;;;8.10;6.90;;;9.60;95.80;;;;;;10377967;28;20246;-67
2023/11/21 18:14:10;;;;;;;6.87;6.20;;;9.60;96.30;;;;;;10370319;28;20279;-66
2023/11/21 18:19:14;;;;;;;9.10;7.67;;;9.60;95.80;;;;;;10374974;28;20722;-68
2023/11/21 18:24:17;;;;;;;7.07;6.37;;;9.70;95.10;;;;;;10374280;28;20200;-66
2023/11/21 18:29:22;;;;;;;7.07;6.27;;;9.60;95.20;;;;;;10374060;28;20248;-67
2023/11/21 18:34:26;;;;;;;7.80;7.00;;;9.60;95.40;;;;;;10372005;28;20217;-67
2023/11/21 18:39:29;;;;;;;8.67;7.77;;;9.60;95.20;;;;;;10374303;28;20268;-66
2023/11/21 18:44:34;;;;;;;9.10;7.57;;;9.60;95.00;;;;;;10370701;28;20239;-66
2023/11/21 18:49:54;;;;;;;8.57;7.67;;;9.60;94.90;;;;;;10367587;28;20259;-67
2023/11/21 18:54:58;;;;;;;9.20;8.00;;;9.60;95.00;;;;;;10363839;28;20224;-67
2023/11/21 19:00:05;;;;;;;9.53;8.60;;;9.60;95.10;;;;;;10368125;28;20290;-66
2023/11/21 19:05:09;;;;;;;9.40;8.40;;;9.60;94.80;;;;;;10371410;28;20244;-67
2023/11/21 19:10:13;;;;;;;10.20;9.13;;;9.60;94.70;;;;;;10376185;28;20266;-66
2023/11/21 19:15:18;;;;;;;10.67;9.67;;;9.60;94.80;;;;;;10374593;28;20225;-67
2023/11/21 19:20:23;;;;;;;10.90;9.70;;;9.60;94.90;;;;;;10366869;28;20217;-66
2023/11/21 19:25:26;;;;;;;11.43;10.07;;;9.60;95.00;;;;;;10365832;28;20228;-66
2023/11/21 19:30:32;;;;;;;10.93;9.83;;;9.60;94.90;;;;;;10361684;28;20421;-64
2023/11/21 19:35:38;;;;;;;12.73;10.23;;;9.60;95.00;;;;;;10367704;28;20249;-65
2023/11/21 19:40:43;;;;;;;11.43;9.40;;;9.60;95.10;;;;;;10371063;28;20251;-65
2023/11/21 19:45:49;;;;;;;11.80;10.53;;;9.60;95.00;;;;;;10372905;28;20255;-66
2023/11/21 19:50:52;;;;;;;10.73;9.63;;;9.60;95.30;;;;;;10366304;28;20283;-68
2023/11/21 19:55:56;;;;;;;12.03;9.67;;;9.50;95.30;;;;;;10310599;28;20770;-65
2023/11/21 20:01:01;;;;;;;12.27;10.87;;;9.50;95.10;;;;;;10363338;28;20746;-63
2023/11/21 20:06:09;;;;;;;11.97;10.13;;;9.50;95.20;;;;;;10366419;28;20197;-64
2023/11/21 20:11:13;;;;;;;11.43;10.23;;;9.50;94.90;;;;;;10358532;28;20758;-64
2023/11/21 20:16:19;;;;;;;11.93;10.50;;;9.50;95.20;;;;;;10368259;28;20224;-64
2023/11/21 20:21:23;;;;;;;12.80;11.03;;;9.50;95.10;;;;;;10371012;28;20318;-64
2023/11/21 20:26:26;;;;;;;14.53;11.10;;;9.50;95.00;;;;;;10368548;28;20197;-64
2023/11/21 20:31:31;;;;;;;12.77;11.57;;;9.50;95.10;;;;;;10364942;28;20283;-63
2023/11/21 20:36:35;;;;;;;13.83;11.90;;;9.40;95.10;;;;;;10364810;28;20257;-64
2023/11/21 20:41:41;;;;;;;12.43;11.17;;;9.50;95.20;;;;;;10365898;28;20278;-64
2023/11/21 20:46:46;;;;;;;13.97;12.47;;;9.50;95.10;;;;;;10367477;28;20254;-66
2023/11/21 20:51:55;;;;;;;14.60;13.10;;;9.50;95.10;;;;;;10369331;28;20275;-65
2023/11/21 20:56:58;;;;;;;13.93;12.43;;;9.40;95.00;;;;;;10371531;28;20224;-65
2023/11/21 21:02:03;;;;;;;13.77;12.20;;;9.40;95.10;;;;;;10370630;28;20283;-65
2023/11/21 21:07:07;;;;;;;14.10;12.50;;;9.40;95.40;;;;;;10369317;28;20255;-65
2023/11/21 21:12:11;;;;;;;14.77;11.53;;;9.40;95.70;;;;;;10369062;28;20233;-64
2023/11/21 21:17:16;;;;;;;12.40;11.10;;;9.40;95.10;;;;;;10367230;28;20252;-65
2023/11/21 21:22:20;;;;;;;11.87;10.67;;;9.40;95.20;;;;;;10366795;28;20260;-64
2023/11/21 21:27:24;;;;;;;11.57;10.37;;;9.40;95.40;;;;;;10363808;28;20217;-66
2023/11/21 21:32:29;;;;;;;11.40;10.30;;;9.40;95.10;;;;;;10374974;28;20221;-65
2023/11/21 21:37:33;;;;;;;11.30;10.10;;;9.40;94.80;;;;;;10374121;28;20228;-64
2023/11/21 21:42:38;;;;;;;11.83;9.57;;;9.40;94.80;;;;;;10373360;28;20222;-65
2023/11/21 21:47:43;;;;;;;13.87;10.63;;;9.40;94.80;;;;;;10374828;28;20205;-64
2023/11/21 21:52:47;;;;;;;9.97;8.97;;;9.40;94.80;;;;;;10376368;28;20256;-66
2023/11/21 21:57:50;;;;;;;10.83;8.10;;;9.30;94.40;;;;;;10375458;28;20285;-63
2023/11/21 22:02:55;;;;;;;10.97;9.87;;;9.30;94.50;;;;;;10376989;28;20251;-64
2023/11/21 22:07:59;;;;;;;11.03;9.93;;;9.30;94.60;;;;;;10374198;28;20192;-64
2023/11/21 22:13:03;;;;;;;13.30;10.83;;;9.30;94.60;;;;;;10377724;28;20286;-66
2023/11/21 22:18:08;;;;;;;10.83;9.73;;;9.20;94.60;;;;;;10377990;28;20759;-66
2023/11/21 22:23:12;;;;;;;10.93;9.83;;;9.20;94.60;;;;;;10381449;28;20773;-66
2023/11/21 22:28:16;;;;;;;10.10;9.10;;;9.20;94.50;;;;;;10373829;28;20193;-66
2023/11/21 22:33:20;;;;;;;9.53;8.57;;;9.20;94.60;;;;;;10372007;28;20217;-65
2023/11/21 22:38:25;;;;;;;9.10;8.20;;;9.20;94.50;;;;;;10373267;28;20314;-65
2023/11/21 22:43:29;;;;;;;9.67;8.67;;;9.20;94.40;;;;;;10375695;28;20216;-66
2023/11/21 22:48:34;;;;;;;9.03;8.13;;;9.20;94.20;;;;;;10371046;28;20201;-66
2023/11/21 22:53:39;;;;;;;7.73;7.03;;;9.20;94.30;;;;;;10367499;28;20216;-66
2023/11/21 22:58:42;;;;;;;7.73;6.93;;;9.10;94.30;;;;;;10366791;28;20288;-65
2023/11/21 23:03:47;;;;;;;7.07;6.37;;;9.10;94.30;;;;;;10368567;28;20221;-66
2023/11/21 23:08:51;;;;;;;7.30;6.60;;;9.10;94.00;;;;;;10367062;28;20201;-65
2023/11/21 23:13:55;;;;;;;7.17;6.47;;;9.10;93.90;;;;;;10364666;28;20225;-66
2023/11/21 23:19:00;;;;;;;7.03;6.33;;;9.10;94.00;;;;;;10378000;28;20197;-66
2023/11/21 23:24:09;;;;;;;9.33;6.47;;;9.10;94.00;;;;;;10370498;28;20221;-66
2023/11/21 23:29:13;;;;;;;6.63;5.93;;;9.10;93.90;;;;;;10369126;28;20275;-66
2023/11/21 23:34:18;;;;;;;6.67;5.97;;;9.10;93.80;;;;;;10370807;28;20247;-66
2023/11/21 23:39:21;;;;;;;6.30;5.70;;;9.10;94.20;;;;;;10373824;28;20221;-65
2023/11/21 23:44:28;;;;;;;6.73;6.00;;;9.10;93.70;;;;;;10369495;28;20255;-66
2023/11/21 23:49:35;;;;;;;7.70;6.43;;;9.00;93.70;;;;;;10367724;28;20842;-67
2023/11/21 23:54:38;;;;;;;6.70;6.07;;;9.00;93.60;;;;;;10368977;28;20267;-66
2023/11/21 23:59:42;;;;;;;6.33;5.73;;;9.00;93.60;;;;;;10372559;28;20609;-66
